sensor_id;sensor_type;location;lat;lon;timestamp;temperature;humidity
6666;DHT22;3369;49.906;8.598;2023-07-24T00:00:45;20.70;86.10
6666;DHT22;3369;49.906;8.598;2023-07-24T00:03:10;20.70;86.00
6666;DHT22;3369;49.906;8.598;2023-07-24T00:05:36;20.70;86.70
6666;DHT22;3369;49.906;8.598;2023-07-24T00:08:02;20.70;86.00
6666;DHT22;3369;49.906;8.598;2023-07-24T00:10:27;20.70;86.00
6666;DHT22;3369;49.906;8.598;2023-07-24T00:12:53;20.70;86.00
6666;DHT22;3369;49.906;8.598;2023-07-24T00:15:18;20.70;86.00
6666;DHT22;3369;49.906;8.598;2023-07-24T00:17:44;20.60;85.80
6666;DHT22;3369;49.906;8.598;2023-07-24T00:20:11;20.60;86.00
6666;DHT22;3369;49.906;8.598;2023-07-24T00:22:37;20.60;86.00
6666;DHT22;3369;49.906;8.598;2023-07-24T00:25:02;20.60;86.00
6666;DHT22;3369;49.906;8.598;2023-07-24T00:27:28;20.60;86.70
6666;DHT22;3369;49.906;8.598;2023-07-24T00:29:54;20.60;86.70
6666;DHT22;3369;49.906;8.598;2023-07-24T00:32:19;20.60;86.00
6666;DHT22;3369;49.906;8.598;2023-07-24T00:34:45;20.60;86.00
6666;DHT22;3369;49.906;8.598;2023-07-24T00:37:10;20.60;85.90
6666;DHT22;3369;49.906;8.598;2023-07-24T00:39:36;20.60;85.80
6666;DHT22;3369;49.906;8.598;2023-07-24T00:42:02;20.60;85.80
6666;DHT22;3369;49.906;8.598;2023-07-24T00:44:27;20.50;85.80
6666;DHT22;3369;49.906;8.598;2023-07-24T00:46:53;20.50;85.80
6666;DHT22;3369;49.906;8.598;2023-07-24T00:49:19;20.50;85.80
6666;DHT22;3369;49.906;8.598;2023-07-24T00:51:46;20.50;85.80
6666;DHT22;3369;49.906;8.598;2023-07-24T00:54:15;20.50;85.90
6666;DHT22;3369;49.906;8.598;2023-07-24T00:56:42;20.50;86.70
6666;DHT22;3369;49.906;8.598;2023-07-24T00:59:09;20.50;86.10
6666;DHT22;3369;49.906;8.598;2023-07-24T01:01:35;20.50;86.20
6666;DHT22;3369;49.906;8.598;2023-07-24T01:04:03;20.50;86.20
6666;DHT22;3369;49.906;8.598;2023-07-24T01:06:29;20.40;86.10
6666;DHT22;3369;49.906;8.598;2023-07-24T01:08:55;20.40;86.20
6666;DHT22;3369;49.906;8.598;2023-07-24T01:11:34;20.40;86.20
6666;DHT22;3369;49.906;8.598;2023-07-24T01:14:23;20.40;86.30
6666;DHT22;3369;49.906;8.598;2023-07-24T01:16:50;20.40;86.40
6666;DHT22;3369;49.906;8.598;2023-07-24T01:27:34;20.30;86.30
6666;DHT22;3369;49.906;8.598;2023-07-24T01:30:00;20.30;86.40
6666;DHT22;3369;49.906;8.598;2023-07-24T01:32:26;20.40;86.60
6666;DHT22;3369;49.906;8.598;2023-07-24T01:34:52;20.40;86.60
6666;DHT22;3369;49.906;8.598;2023-07-24T01:37:20;20.30;86.60
6666;DHT22;3369;49.906;8.598;2023-07-24T01:39:48;20.30;86.70
6666;DHT22;3369;49.906;8.598;2023-07-24T01:42:14;20.30;86.60
6666;DHT22;3369;49.906;8.598;2023-07-24T01:44:39;20.30;86.60
6666;DHT22;3369;49.906;8.598;2023-07-24T01:47:05;20.30;86.60
6666;DHT22;3369;49.906;8.598;2023-07-24T01:49:31;20.30;86.70
6666;DHT22;3369;49.906;8.598;2023-07-24T01:51:57;20.30;86.70
6666;DHT22;3369;49.906;8.598;2023-07-24T01:54:23;20.30;86.80
6666;DHT22;3369;49.906;8.598;2023-07-24T01:56:48;20.20;86.70
6666;DHT22;3369;49.906;8.598;2023-07-24T01:59:14;20.20;86.80
6666;DHT22;3369;49.906;8.598;2023-07-24T02:01:40;20.20;86.80
6666;DHT22;3369;49.906;8.598;2023-07-24T02:04:06;20.20;86.70
6666;DHT22;3369;49.906;8.598;2023-07-24T02:06:31;20.20;86.60
6666;DHT22;3369;49.906;8.598;2023-07-24T02:08:57;20.10;86.30
6666;DHT22;3369;49.906;8.598;2023-07-24T02:11:23;20.20;86.30
6666;DHT22;3369;49.906;8.598;2023-07-24T02:13:48;20.20;86.30
6666;DHT22;3369;49.906;8.598;2023-07-24T02:16:14;20.20;86.30
6666;DHT22;3369;49.906;8.598;2023-07-24T02:18:42;20.20;86.20
6666;DHT22;3369;49.906;8.598;2023-07-24T02:21:08;20.20;86.20
6666;DHT22;3369;49.906;8.598;2023-07-24T02:23:34;20.20;86.10
6666;DHT22;3369;49.906;8.598;2023-07-24T02:26:00;20.20;86.20
6666;DHT22;3369;49.906;8.598;2023-07-24T02:28:26;20.20;86.10
6666;DHT22;3369;49.906;8.598;2023-07-24T02:30:52;20.20;86.10
6666;DHT22;3369;49.906;8.598;2023-07-24T02:33:21;20.20;86.20
6666;DHT22;3369;49.906;8.598;2023-07-24T02:35:47;20.10;86.20
6666;DHT22;3369;49.906;8.598;2023-07-24T02:38:12;20.10;86.40
6666;DHT22;3369;49.906;8.598;2023-07-24T02:40:41;20.00;86.40
6666;DHT22;3369;49.906;8.598;2023-07-24T02:43:06;20.00;86.60
6666;DHT22;3369;49.906;8.598;2023-07-24T02:45:36;19.90;86.90
6666;DHT22;3369;49.906;8.598;2023-07-24T02:48:02;19.90;87.00
6666;DHT22;3369;49.906;8.598;2023-07-24T02:50:28;19.80;87.20
6666;DHT22;3369;49.906;8.598;2023-07-24T02:52:54;19.80;87.30
6666;DHT22;3369;49.906;8.598;2023-07-24T02:55:19;19.70;87.50
6666;DHT22;3369;49.906;8.598;2023-07-24T02:57:45;19.70;87.70
6666;DHT22;3369;49.906;8.598;2023-07-24T03:00:11;19.70;87.80
6666;DHT22;3369;49.906;8.598;2023-07-24T03:02:38;19.60;88.00
6666;DHT22;3369;49.906;8.598;2023-07-24T03:05:04;19.60;88.20
6666;DHT22;3369;49.906;8.598;2023-07-24T03:07:30;19.60;88.30
6666;DHT22;3369;49.906;8.598;2023-07-24T03:09:55;19.50;88.50
6666;DHT22;3369;49.906;8.598;2023-07-24T03:12:21;19.50;88.60
6666;DHT22;3369;49.906;8.598;2023-07-24T03:14:47;19.50;88.60
6666;DHT22;3369;49.906;8.598;2023-07-24T03:17:13;19.40;88.50
6666;DHT22;3369;49.906;8.598;2023-07-24T03:19:39;19.40;88.60
6666;DHT22;3369;49.906;8.598;2023-07-24T03:22:05;19.40;89.40
6666;DHT22;3369;49.906;8.598;2023-07-24T03:24:31;19.40;88.90
6666;DHT22;3369;49.906;8.598;2023-07-24T03:26:56;19.40;89.20
6666;DHT22;3369;49.906;8.598;2023-07-24T03:29:22;19.30;89.30
6666;DHT22;3369;49.906;8.598;2023-07-24T03:31:47;19.30;90.00
6666;DHT22;3369;49.906;8.598;2023-07-24T03:34:13;19.30;89.50
6666;DHT22;3369;49.906;8.598;2023-07-24T03:36:39;19.20;89.50
6666;DHT22;3369;49.906;8.598;2023-07-24T03:39:07;19.20;89.70
6666;DHT22;3369;49.906;8.598;2023-07-24T03:41:32;19.20;89.80
6666;DHT22;3369;49.906;8.598;2023-07-24T03:43:58;19.20;90.00
6666;DHT22;3369;49.906;8.598;2023-07-24T03:46:24;19.10;90.00
6666;DHT22;3369;49.906;8.598;2023-07-24T03:48:50;19.10;90.10
6666;DHT22;3369;49.906;8.598;2023-07-24T03:51:16;19.10;90.20
6666;DHT22;3369;49.906;8.598;2023-07-24T03:53:42;19.10;90.30
6666;DHT22;3369;49.906;8.598;2023-07-24T03:56:07;19.10;90.40
6666;DHT22;3369;49.906;8.598;2023-07-24T03:58:33;19.10;90.40
6666;DHT22;3369;49.906;8.598;2023-07-24T04:00:58;19.10;90.40
6666;DHT22;3369;49.906;8.598;2023-07-24T04:03:24;19.00;90.40
6666;DHT22;3369;49.906;8.598;2023-07-24T04:05:50;19.00;90.50
6666;DHT22;3369;49.906;8.598;2023-07-24T04:08:15;19.00;90.60
6666;DHT22;3369;49.906;8.598;2023-07-24T04:10:41;19.10;90.70
6666;DHT22;3369;49.906;8.598;2023-07-24T04:13:06;19.00;90.80
6666;DHT22;3369;49.906;8.598;2023-07-24T04:15:32;19.00;90.90
6666;DHT22;3369;49.906;8.598;2023-07-24T04:17:58;19.10;90.90
6666;DHT22;3369;49.906;8.598;2023-07-24T04:20:23;19.10;91.00
6666;DHT22;3369;49.906;8.598;2023-07-24T04:22:49;19.00;91.00
6666;DHT22;3369;49.906;8.598;2023-07-24T04:25:14;19.10;91.20
6666;DHT22;3369;49.906;8.598;2023-07-24T04:27:41;19.10;91.20
6666;DHT22;3369;49.906;8.598;2023-07-24T04:30:07;19.10;91.30
6666;DHT22;3369;49.906;8.598;2023-07-24T04:32:33;19.10;91.30
6666;DHT22;3369;49.906;8.598;2023-07-24T04:34:58;19.10;91.30
6666;DHT22;3369;49.906;8.598;2023-07-24T04:37:24;19.10;91.30
6666;DHT22;3369;49.906;8.598;2023-07-24T04:39:49;19.10;91.50
6666;DHT22;3369;49.906;8.598;2023-07-24T04:42:15;19.10;91.60
6666;DHT22;3369;49.906;8.598;2023-07-24T04:44:41;19.10;91.60
6666;DHT22;3369;49.906;8.598;2023-07-24T04:47:06;19.10;91.60
6666;DHT22;3369;49.906;8.598;2023-07-24T04:49:32;19.10;91.60
6666;DHT22;3369;49.906;8.598;2023-07-24T04:51:58;19.20;91.70
6666;DHT22;3369;49.906;8.598;2023-07-24T04:54:25;19.20;91.90
6666;DHT22;3369;49.906;8.598;2023-07-24T04:56:50;19.20;91.80
6666;DHT22;3369;49.906;8.598;2023-07-24T04:59:16;19.20;91.90
6666;DHT22;3369;49.906;8.598;2023-07-24T05:01:41;19.20;91.90
6666;DHT22;3369;49.906;8.598;2023-07-24T05:04:08;19.30;92.10
6666;DHT22;3369;49.906;8.598;2023-07-24T05:06:33;19.30;92.10
6666;DHT22;3369;49.906;8.598;2023-07-24T05:09:01;19.30;92.10
6666;DHT22;3369;49.906;8.598;2023-07-24T05:11:26;19.30;92.10
6666;DHT22;3369;49.906;8.598;2023-07-24T05:13:52;19.30;92.20
6666;DHT22;3369;49.906;8.598;2023-07-24T05:16:17;19.30;92.50
6666;DHT22;3369;49.906;8.598;2023-07-24T05:18:43;19.30;92.30
6666;DHT22;3369;49.906;8.598;2023-07-24T05:21:09;19.40;92.50
6666;DHT22;3369;49.906;8.598;2023-07-24T05:23:34;19.30;92.50
6666;DHT22;3369;49.906;8.598;2023-07-24T05:26:01;19.40;92.60
6666;DHT22;3369;49.906;8.598;2023-07-24T05:28:29;19.40;92.50
6666;DHT22;3369;49.906;8.598;2023-07-24T05:30:55;19.40;92.60
6666;DHT22;3369;49.906;8.598;2023-07-24T05:33:21;19.50;92.60
6666;DHT22;3369;49.906;8.598;2023-07-24T05:35:48;19.50;92.70
6666;DHT22;3369;49.906;8.598;2023-07-24T05:38:15;19.50;92.80
6666;DHT22;3369;49.906;8.598;2023-07-24T05:40:40;19.60;93.00
6666;DHT22;3369;49.906;8.598;2023-07-24T05:43:06;19.60;93.30
6666;DHT22;3369;49.906;8.598;2023-07-24T05:45:31;19.60;93.10
6666;DHT22;3369;49.906;8.598;2023-07-24T05:47:57;19.70;93.10
6666;DHT22;3369;49.906;8.598;2023-07-24T05:50:22;19.70;93.10
6666;DHT22;3369;49.906;8.598;2023-07-24T05:52:48;19.80;93.30
6666;DHT22;3369;49.906;8.598;2023-07-24T05:55:14;19.80;93.50
6666;DHT22;3369;49.906;8.598;2023-07-24T05:57:39;19.80;93.80
6666;DHT22;3369;49.906;8.598;2023-07-24T06:00:05;19.80;94.10
6666;DHT22;3369;49.906;8.598;2023-07-24T06:02:31;19.80;94.00
6666;DHT22;3369;49.906;8.598;2023-07-24T06:04:57;19.90;94.20
6666;DHT22;3369;49.906;8.598;2023-07-24T06:07:22;19.90;94.30
6666;DHT22;3369;49.906;8.598;2023-07-24T06:09:48;19.90;94.40
6666;DHT22;3369;49.906;8.598;2023-07-24T06:12:14;20.00;94.40
6666;DHT22;3369;49.906;8.598;2023-07-24T06:14:39;20.00;94.50
6666;DHT22;3369;49.906;8.598;2023-07-24T06:17:05;20.00;94.40
6666;DHT22;3369;49.906;8.598;2023-07-24T06:19:31;20.00;94.50
6666;DHT22;3369;49.906;8.598;2023-07-24T06:21:57;20.00;94.60
6666;DHT22;3369;49.906;8.598;2023-07-24T06:24:22;20.00;94.70
6666;DHT22;3369;49.906;8.598;2023-07-24T06:26:49;20.00;94.70
6666;DHT22;3369;49.906;8.598;2023-07-24T06:29:15;20.10;94.80
6666;DHT22;3369;49.906;8.598;2023-07-24T06:31:41;20.10;94.70
6666;DHT22;3369;49.906;8.598;2023-07-24T06:34:07;20.20;94.70
6666;DHT22;3369;49.906;8.598;2023-07-24T06:36:32;20.20;94.90
6666;DHT22;3369;49.906;8.598;2023-07-24T06:38:58;20.30;94.80
6666;DHT22;3369;49.906;8.598;2023-07-24T06:41:24;20.40;94.80
6666;DHT22;3369;49.906;8.598;2023-07-24T06:43:50;20.50;94.80
6666;DHT22;3369;49.906;8.598;2023-07-24T06:46:16;20.50;94.80
6666;DHT22;3369;49.906;8.598;2023-07-24T06:48:42;20.60;94.70
6666;DHT22;3369;49.906;8.598;2023-07-24T06:51:08;20.70;94.70
6666;DHT22;3369;49.906;8.598;2023-07-24T06:53:33;20.70;94.60
6666;DHT22;3369;49.906;8.598;2023-07-24T06:55:59;20.80;94.70
6666;DHT22;3369;49.906;8.598;2023-07-24T06:58:24;20.90;94.70
6666;DHT22;3369;49.906;8.598;2023-07-24T07:00:50;21.00;94.60
6666;DHT22;3369;49.906;8.598;2023-07-24T07:03:15;21.10;94.90
6666;DHT22;3369;49.906;8.598;2023-07-24T07:05:41;21.30;94.50
6666;DHT22;3369;49.906;8.598;2023-07-24T07:08:07;21.30;94.10
6666;DHT22;3369;49.906;8.598;2023-07-24T07:10:33;21.40;93.90
6666;DHT22;3369;49.906;8.598;2023-07-24T07:12:59;21.50;93.80
6666;DHT22;3369;49.906;8.598;2023-07-24T07:15:25;21.50;94.20
6666;DHT22;3369;49.906;8.598;2023-07-24T07:17:50;21.50;93.90
6666;DHT22;3369;49.906;8.598;2023-07-24T07:20:16;21.70;94.00
6666;DHT22;3369;49.906;8.598;2023-07-24T07:22:42;21.70;93.90
6666;DHT22;3369;49.906;8.598;2023-07-24T07:25:07;21.90;93.70
6666;DHT22;3369;49.906;8.598;2023-07-24T07:27:33;22.10;93.40
6666;DHT22;3369;49.906;8.598;2023-07-24T07:29:59;22.30;93.40
6666;DHT22;3369;49.906;8.598;2023-07-24T07:32:24;22.50;93.50
6666;DHT22;3369;49.906;8.598;2023-07-24T07:34:50;22.70;93.00
6666;DHT22;3369;49.906;8.598;2023-07-24T07:37:16;22.80;92.80
6666;DHT22;3369;49.906;8.598;2023-07-24T07:39:41;23.00;92.60
6666;DHT22;3369;49.906;8.598;2023-07-24T07:42:07;23.20;91.70
6666;DHT22;3369;49.906;8.598;2023-07-24T07:44:33;23.20;91.40
6666;DHT22;3369;49.906;8.598;2023-07-24T07:46:58;23.20;91.50
6666;DHT22;3369;49.906;8.598;2023-07-24T07:49:24;23.20;91.50
6666;DHT22;3369;49.906;8.598;2023-07-24T07:51:49;23.30;91.40
6666;DHT22;3369;49.906;8.598;2023-07-24T07:54:15;23.40;91.40
6666;DHT22;3369;49.906;8.598;2023-07-24T07:56:41;23.40;91.30
6666;DHT22;3369;49.906;8.598;2023-07-24T07:59:07;23.40;91.20
6666;DHT22;3369;49.906;8.598;2023-07-24T08:01:33;23.50;91.10
6666;DHT22;3369;49.906;8.598;2023-07-24T08:03:58;23.40;90.50
6666;DHT22;3369;49.906;8.598;2023-07-24T08:06:24;23.40;90.60
6666;DHT22;3369;49.906;8.598;2023-07-24T08:08:50;23.30;90.60
6666;DHT22;3369;49.906;8.598;2023-07-24T08:11:15;23.30;90.70
6666;DHT22;3369;49.906;8.598;2023-07-24T08:13:41;23.30;90.80
6666;DHT22;3369;49.906;8.598;2023-07-24T08:16:16;23.30;90.90
6666;DHT22;3369;49.906;8.598;2023-07-24T08:18:45;23.30;90.80
6666;DHT22;3369;49.906;8.598;2023-07-24T08:21:12;23.30;90.80
6666;DHT22;3369;49.906;8.598;2023-07-24T08:23:39;23.30;90.80
6666;DHT22;3369;49.906;8.598;2023-07-24T08:26:04;23.30;90.80
6666;DHT22;3369;49.906;8.598;2023-07-24T08:28:30;23.30;90.50
6666;DHT22;3369;49.906;8.598;2023-07-24T08:30:59;23.20;90.20
6666;DHT22;3369;49.906;8.598;2023-07-24T08:33:26;23.30;90.50
6666;DHT22;3369;49.906;8.598;2023-07-24T08:36:01;23.30;90.40
6666;DHT22;3369;49.906;8.598;2023-07-24T08:38:28;23.30;90.50
6666;DHT22;3369;49.906;8.598;2023-07-24T08:41:13;23.30;90.60
6666;DHT22;3369;49.906;8.598;2023-07-24T08:43:41;23.40;90.60
6666;DHT22;3369;49.906;8.598;2023-07-24T08:46:07;23.40;90.30
6666;DHT22;3369;49.906;8.598;2023-07-24T08:48:35;23.40;90.30
6666;DHT22;3369;49.906;8.598;2023-07-24T08:51:05;23.30;90.30
6666;DHT22;3369;49.906;8.598;2023-07-24T08:53:32;23.30;90.20
6666;DHT22;3369;49.906;8.598;2023-07-24T08:56:05;23.30;90.50
6666;DHT22;3369;49.906;8.598;2023-07-24T08:58:32;23.30;90.20
6666;DHT22;3369;49.906;8.598;2023-07-24T09:01:00;23.20;90.30
6666;DHT22;3369;49.906;8.598;2023-07-24T09:03:26;23.30;90.40
6666;DHT22;3369;49.906;8.598;2023-07-24T09:05:52;23.30;90.30
6666;DHT22;3369;49.906;8.598;2023-07-24T09:08:31;23.30;90.20
6666;DHT22;3369;49.906;8.598;2023-07-24T09:10:58;23.30;90.10
6666;DHT22;3369;49.906;8.598;2023-07-24T09:13:24;23.30;89.70
6666;DHT22;3369;49.906;8.598;2023-07-24T09:15:50;23.30;89.90
6666;DHT22;3369;49.906;8.598;2023-07-24T09:18:15;23.20;90.00
6666;DHT22;3369;49.906;8.598;2023-07-24T09:20:43;23.20;90.20
6666;DHT22;3369;49.906;8.598;2023-07-24T09:23:11;23.20;90.10
6666;DHT22;3369;49.906;8.598;2023-07-24T09:25:38;23.00;90.60
6666;DHT22;3369;49.906;8.598;2023-07-24T09:28:15;23.00;91.50
6666;DHT22;3369;49.906;8.598;2023-07-24T09:30:41;22.80;91.70
6666;DHT22;3369;49.906;8.598;2023-07-24T09:33:07;22.70;91.90
6666;DHT22;3369;49.906;8.598;2023-07-24T09:35:34;22.70;92.00
6666;DHT22;3369;49.906;8.598;2023-07-24T09:38:07;22.60;92.10
6666;DHT22;3369;49.906;8.598;2023-07-24T09:40:40;22.60;92.10
6666;DHT22;3369;49.906;8.598;2023-07-24T09:43:27;22.60;92.10
6666;DHT22;3369;49.906;8.598;2023-07-24T09:45:54;22.60;92.00
6666;DHT22;3369;49.906;8.598;2023-07-24T09:48:22;22.60;92.00
6666;DHT22;3369;49.906;8.598;2023-07-24T09:50:52;22.70;92.10
6666;DHT22;3369;49.906;8.598;2023-07-24T09:53:37;22.80;92.00
6666;DHT22;3369;49.906;8.598;2023-07-24T09:56:10;22.90;92.00
6666;DHT22;3369;49.906;8.598;2023-07-24T09:58:38;23.10;91.90
6666;DHT22;3369;49.906;8.598;2023-07-24T10:01:08;23.30;91.50
6666;DHT22;3369;49.906;8.598;2023-07-24T10:03:35;23.40;91.40
6666;DHT22;3369;49.906;8.598;2023-07-24T10:06:01;23.50;91.10
6666;DHT22;3369;49.906;8.598;2023-07-24T10:08:27;23.40;91.00
6666;DHT22;3369;49.906;8.598;2023-07-24T10:10:53;23.40;91.00
6666;DHT22;3369;49.906;8.598;2023-07-24T10:13:20;23.30;91.30
6666;DHT22;3369;49.906;8.598;2023-07-24T10:15:47;23.30;91.30
6666;DHT22;3369;49.906;8.598;2023-07-24T10:18:16;23.30;90.80
6666;DHT22;3369;49.906;8.598;2023-07-24T10:20:43;23.30;91.00
6666;DHT22;3369;49.906;8.598;2023-07-24T10:23:10;23.30;90.90
6666;DHT22;3369;49.906;8.598;2023-07-24T10:25:38;23.30;90.80
6666;DHT22;3369;49.906;8.598;2023-07-24T10:28:07;23.30;90.70
6666;DHT22;3369;49.906;8.598;2023-07-24T10:30:35;23.30;91.00
6666;DHT22;3369;49.906;8.598;2023-07-24T10:33:13;23.20;91.30
6666;DHT22;3369;49.906;8.598;2023-07-24T10:35:44;23.30;91.70
6666;DHT22;3369;49.906;8.598;2023-07-24T10:38:13;23.30;91.90
6666;DHT22;3369;49.906;8.598;2023-07-24T10:40:41;23.40;92.10
6666;DHT22;3369;49.906;8.598;2023-07-24T10:43:12;23.60;92.20
6666;DHT22;3369;49.906;8.598;2023-07-24T10:45:58;23.70;92.20
6666;DHT22;3369;49.906;8.598;2023-07-24T10:48:25;23.90;92.40
6666;DHT22;3369;49.906;8.598;2023-07-24T10:50:51;24.00;92.40
6666;DHT22;3369;49.906;8.598;2023-07-24T10:53:21;24.00;92.00
6666;DHT22;3369;49.906;8.598;2023-07-24T10:55:48;24.10;91.70
6666;DHT22;3369;49.906;8.598;2023-07-24T10:58:14;24.10;91.60
6666;DHT22;3369;49.906;8.598;2023-07-24T11:00:43;24.20;91.60
6666;DHT22;3369;49.906;8.598;2023-07-24T11:03:10;24.20;91.90
6666;DHT22;3369;49.906;8.598;2023-07-24T11:05:40;24.30;91.70
6666;DHT22;3369;49.906;8.598;2023-07-24T11:08:17;24.40;91.80
6666;DHT22;3369;49.906;8.598;2023-07-24T11:10:56;24.50;91.40
6666;DHT22;3369;49.906;8.598;2023-07-24T11:13:24;24.50;90.70
6666;DHT22;3369;49.906;8.598;2023-07-24T11:15:51;24.60;89.90
6666;DHT22;3369;49.906;8.598;2023-07-24T11:18:18;24.60;90.10
6666;DHT22;3369;49.906;8.598;2023-07-24T11:20:55;24.60;90.40
6666;DHT22;3369;49.906;8.598;2023-07-24T11:23:21;24.70;89.10
6666;DHT22;3369;49.906;8.598;2023-07-24T11:25:50;24.80;88.60
6666;DHT22;3369;49.906;8.598;2023-07-24T11:28:16;24.80;88.40
6666;DHT22;3369;49.906;8.598;2023-07-24T11:30:42;24.90;88.30
6666;DHT22;3369;49.906;8.598;2023-07-24T11:33:11;24.80;88.00
6666;DHT22;3369;49.906;8.598;2023-07-24T11:35:38;24.80;88.40
6666;DHT22;3369;49.906;8.598;2023-07-24T11:38:05;24.80;88.60
6666;DHT22;3369;49.906;8.598;2023-07-24T11:40:40;24.80;89.30
6666;DHT22;3369;49.906;8.598;2023-07-24T11:43:16;24.80;89.60
6666;DHT22;3369;49.906;8.598;2023-07-24T11:45:43;24.80;89.80
6666;DHT22;3369;49.906;8.598;2023-07-24T11:48:10;24.80;89.40
6666;DHT22;3369;49.906;8.598;2023-07-24T11:50:46;24.80;89.10
6666;DHT22;3369;49.906;8.598;2023-07-24T11:53:23;24.90;90.10
6666;DHT22;3369;49.906;8.598;2023-07-24T11:55:51;24.90;90.40
6666;DHT22;3369;49.906;8.598;2023-07-24T11:58:17;24.80;90.10
6666;DHT22;3369;49.906;8.598;2023-07-24T12:00:43;24.80;89.80
6666;DHT22;3369;49.906;8.598;2023-07-24T12:03:10;24.80;90.20
6666;DHT22;3369;49.906;8.598;2023-07-24T12:05:43;25.00;87.80
6666;DHT22;3369;49.906;8.598;2023-07-24T12:08:10;25.30;85.20
6666;DHT22;3369;49.906;8.598;2023-07-24T12:10:39;25.60;82.70
6666;DHT22;3369;49.906;8.598;2023-07-24T12:13:06;25.70;82.00
6666;DHT22;3369;49.906;8.598;2023-07-24T12:15:32;25.70;80.30
6666;DHT22;3369;49.906;8.598;2023-07-24T12:17:59;25.70;78.90
6666;DHT22;3369;49.906;8.598;2023-07-24T12:20:26;25.70;80.00
6666;DHT22;3369;49.906;8.598;2023-07-24T12:22:52;25.80;81.00
6666;DHT22;3369;49.906;8.598;2023-07-24T12:25:19;25.90;80.90
6666;DHT22;3369;49.906;8.598;2023-07-24T12:27:46;26.00;80.50
6666;DHT22;3369;49.906;8.598;2023-07-24T12:30:12;26.00;80.30
6666;DHT22;3369;49.906;8.598;2023-07-24T12:32:38;26.00;79.90
6666;DHT22;3369;49.906;8.598;2023-07-24T12:35:04;26.00;80.90
6666;DHT22;3369;49.906;8.598;2023-07-24T12:37:30;26.00;80.50
6666;DHT22;3369;49.906;8.598;2023-07-24T12:39:55;26.00;81.40
6666;DHT22;3369;49.906;8.598;2023-07-24T12:42:21;26.00;80.30
6666;DHT22;3369;49.906;8.598;2023-07-24T12:44:47;26.00;80.40
6666;DHT22;3369;49.906;8.598;2023-07-24T12:47:12;26.10;80.70
6666;DHT22;3369;49.906;8.598;2023-07-24T12:49:38;26.20;79.80
6666;DHT22;3369;49.906;8.598;2023-07-24T12:52:04;26.30;80.10
6666;DHT22;3369;49.906;8.598;2023-07-24T12:54:31;26.30;79.60
6666;DHT22;3369;49.906;8.598;2023-07-24T12:56:57;26.30;80.50
6666;DHT22;3369;49.906;8.598;2023-07-24T12:59:23;26.20;82.20
6666;DHT22;3369;49.906;8.598;2023-07-24T13:01:48;26.10;84.30
6666;DHT22;3369;49.906;8.598;2023-07-24T13:04:14;26.10;83.90
6666;DHT22;3369;49.906;8.598;2023-07-24T13:06:40;26.00;83.40
6666;DHT22;3369;49.906;8.598;2023-07-24T13:09:05;26.00;84.00
6666;DHT22;3369;49.906;8.598;2023-07-24T13:11:31;26.00;84.30
6666;DHT22;3369;49.906;8.598;2023-07-24T13:13:57;26.00;84.60
6666;DHT22;3369;49.906;8.598;2023-07-24T13:16:23;25.90;84.20
6666;DHT22;3369;49.906;8.598;2023-07-24T13:18:49;25.80;84.70
6666;DHT22;3369;49.906;8.598;2023-07-24T13:21:15;25.70;85.20
6666;DHT22;3369;49.906;8.598;2023-07-24T13:23:41;25.60;85.20
6666;DHT22;3369;49.906;8.598;2023-07-24T13:26:07;25.50;85.80
6666;DHT22;3369;49.906;8.598;2023-07-24T13:28:39;25.40;86.30
6666;DHT22;3369;49.906;8.598;2023-07-24T13:31:18;25.20;86.90
6666;DHT22;3369;49.906;8.598;2023-07-24T13:33:44;25.10;87.90
6666;DHT22;3369;49.906;8.598;2023-07-24T13:36:10;24.90;88.60
6666;DHT22;3369;49.906;8.598;2023-07-24T13:38:36;24.80;89.70
6666;DHT22;3369;49.906;8.598;2023-07-24T13:41:02;24.60;91.50
6666;DHT22;3369;49.906;8.598;2023-07-24T13:43:30;24.50;92.00
6666;DHT22;3369;49.906;8.598;2023-07-24T13:45:56;24.40;92.50
6666;DHT22;3369;49.906;8.598;2023-07-24T13:48:22;24.30;92.80
6666;DHT22;3369;49.906;8.598;2023-07-24T13:50:47;24.30;93.50
6666;DHT22;3369;49.906;8.598;2023-07-24T13:53:13;24.30;93.40
6666;DHT22;3369;49.906;8.598;2023-07-24T13:55:38;24.20;93.30
6666;DHT22;3369;49.906;8.598;2023-07-24T13:58:04;24.10;93.80
6666;DHT22;3369;49.906;8.598;2023-07-24T14:00:30;23.90;94.50
6666;DHT22;3369;49.906;8.598;2023-07-24T14:02:55;23.80;96.50
6666;DHT22;3369;49.906;8.598;2023-07-24T14:05:21;23.60;97.00
6666;DHT22;3369;49.906;8.598;2023-07-24T14:07:46;23.40;93.80
6666;DHT22;3369;49.906;8.598;2023-07-24T14:10:12;23.20;92.90
6666;DHT22;3369;49.906;8.598;2023-07-24T14:12:38;23.10;92.70
6666;DHT22;3369;49.906;8.598;2023-07-24T14:15:04;22.90;92.90
6666;DHT22;3369;49.906;8.598;2023-07-24T14:17:30;22.60;94.20
6666;DHT22;3369;49.906;8.598;2023-07-24T14:19:55;22.50;95.20
6666;DHT22;3369;49.906;8.598;2023-07-24T14:22:21;22.30;96.20
6666;DHT22;3369;49.906;8.598;2023-07-24T14:24:47;22.30;96.70
6666;DHT22;3369;49.906;8.598;2023-07-24T14:27:13;22.30;97.10
6666;DHT22;3369;49.906;8.598;2023-07-24T14:29:39;22.40;97.20
6666;DHT22;3369;49.906;8.598;2023-07-24T14:32:06;22.60;97.60
6666;DHT22;3369;49.906;8.598;2023-07-24T14:34:31;22.80;97.70
6666;DHT22;3369;49.906;8.598;2023-07-24T14:36:57;23.10;97.50
6666;DHT22;3369;49.906;8.598;2023-07-24T14:39:23;23.30;97.40
6666;DHT22;3369;49.906;8.598;2023-07-24T14:41:49;23.60;97.20
6666;DHT22;3369;49.906;8.598;2023-07-24T14:44:14;23.80;97.00
6666;DHT22;3369;49.906;8.598;2023-07-24T14:46:40;23.90;96.70
6666;DHT22;3369;49.906;8.598;2023-07-24T14:49:06;24.00;96.30
6666;DHT22;3369;49.906;8.598;2023-07-24T14:51:31;24.10;95.90
6666;DHT22;3369;49.906;8.598;2023-07-24T14:53:57;24.20;95.80
6666;DHT22;3369;49.906;8.598;2023-07-24T14:56:22;24.30;96.30
6666;DHT22;3369;49.906;8.598;2023-07-24T14:58:48;24.30;95.70
6666;DHT22;3369;49.906;8.598;2023-07-24T15:01:14;24.40;95.10
6666;DHT22;3369;49.906;8.598;2023-07-24T15:03:39;24.40;94.90
6666;DHT22;3369;49.906;8.598;2023-07-24T15:06:05;24.50;95.10
6666;DHT22;3369;49.906;8.598;2023-07-24T15:08:32;24.40;94.40
6666;DHT22;3369;49.906;8.598;2023-07-24T15:10:58;24.40;94.30
6666;DHT22;3369;49.906;8.598;2023-07-24T15:13:24;24.40;94.10
6666;DHT22;3369;49.906;8.598;2023-07-24T15:15:49;24.50;94.30
6666;DHT22;3369;49.906;8.598;2023-07-24T15:18:15;24.60;93.90
6666;DHT22;3369;49.906;8.598;2023-07-24T15:20:41;24.70;93.90
6666;DHT22;3369;49.906;8.598;2023-07-24T15:23:06;24.70;93.40
6666;DHT22;3369;49.906;8.598;2023-07-24T15:25:32;24.60;93.20
6666;DHT22;3369;49.906;8.598;2023-07-24T15:27:58;24.50;93.20
6666;DHT22;3369;49.906;8.598;2023-07-24T15:30:24;24.40;92.90
6666;DHT22;3369;49.906;8.598;2023-07-24T15:32:50;24.30;92.90
6666;DHT22;3369;49.906;8.598;2023-07-24T15:35:15;24.40;93.00
6666;DHT22;3369;49.906;8.598;2023-07-24T15:37:41;24.50;92.80
6666;DHT22;3369;49.906;8.598;2023-07-24T15:40:07;24.50;92.60
6666;DHT22;3369;49.906;8.598;2023-07-24T15:42:33;24.50;92.20
6666;DHT22;3369;49.906;8.598;2023-07-24T15:44:59;24.60;91.40
6666;DHT22;3369;49.906;8.598;2023-07-24T15:47:24;24.50;91.40
6666;DHT22;3369;49.906;8.598;2023-07-24T15:49:51;24.50;91.50
6666;DHT22;3369;49.906;8.598;2023-07-24T15:52:17;24.30;91.50
6666;DHT22;3369;49.906;8.598;2023-07-24T15:54:43;24.30;91.70
6666;DHT22;3369;49.906;8.598;2023-07-24T15:57:08;24.20;91.60
6666;DHT22;3369;49.906;8.598;2023-07-24T15:59:34;24.20;91.80
6666;DHT22;3369;49.906;8.598;2023-07-24T16:01:59;24.20;92.00
6666;DHT22;3369;49.906;8.598;2023-07-24T16:04:26;24.20;92.00
6666;DHT22;3369;49.906;8.598;2023-07-24T16:06:52;24.20;91.70